Terminal Aerodrome Forecast
Issued by NWS Paducah, KY

Home | Current Version | Previous Version | Text Only | Print | Product List | Glossary On
Versions: 1 2 3 4 5 6 7 8 9 10 11 12 13 14 15 16 17 18
322
FTUS43 KPAH 241720
TAFEVV
TAF
KEVV 241720Z 2418/2518 21016G28KT P6SM BKN040
      TEMPO 2421/2424 5SM -TSRA BKN020CB
     FM250200 28012G18KT P6SM SCT030 BKN100
     FM250600 28014G22KT P6SM BKN035=

USA.gov is the U.S. government's official web portal to all federal, state and local government web resources and services.